sensor_id;sensor_type;location;lat;lon;timestamp;temperature;humidity
43581;DHT22;29175;51.030;4.606;2023-01-10T00:00:33;6.70;99.90
43581;DHT22;29175;51.030;4.606;2023-01-10T00:03:04;6.50;99.90
43581;DHT22;29175;51.030;4.606;2023-01-10T00:05:30;6.60;99.90
43581;DHT22;29175;51.030;4.606;2023-01-10T00:07:56;6.70;99.90
43581;DHT22;29175;51.030;4.606;2023-01-10T00:10:24;6.60;99.90
43581;DHT22;29175;51.030;4.606;2023-01-10T00:12:50;6.70;99.90
43581;DHT22;29175;51.030;4.606;2023-01-10T00:15:35;6.60;99.90
43581;DHT22;29175;51.030;4.606;2023-01-10T00:18:01;6.60;99.90
43581;DHT22;29175;51.030;4.606;2023-01-10T00:20:27;6.50;99.90
43581;DHT22;29175;51.030;4.606;2023-01-10T00:22:53;6.50;99.90
43581;DHT22;29175;51.030;4.606;2023-01-10T00:25:18;6.50;99.90
43581;DHT22;29175;51.030;4.606;2023-01-10T00:27:46;6.60;99.90
43581;DHT22;29175;51.030;4.606;2023-01-10T00:30:15;6.70;99.90
43581;DHT22;29175;51.030;4.606;2023-01-10T00:32:42;6.50;99.90
43581;DHT22;29175;51.030;4.606;2023-01-10T00:35:10;6.40;99.90
43581;DHT22;29175;51.030;4.606;2023-01-10T00:37:37;6.40;99.90
43581;DHT22;29175;51.030;4.606;2023-01-10T00:40:04;6.70;99.90
43581;DHT22;29175;51.030;4.606;2023-01-10T00:42:33;6.80;99.90
43581;DHT22;29175;51.030;4.606;2023-01-10T00:45:17;6.80;99.90
43581;DHT22;29175;51.030;4.606;2023-01-10T00:47:44;7.10;99.90
43581;DHT22;29175;51.030;4.606;2023-01-10T00:50:10;7.10;99.90
43581;DHT22;29175;51.030;4.606;2023-01-10T00:52:36;7.30;99.90
43581;DHT22;29175;51.030;4.606;2023-01-10T00:55:02;7.10;99.90
43581;DHT22;29175;51.030;4.606;2023-01-10T00:57:28;7.10;99.90
43581;DHT22;29175;51.030;4.606;2023-01-10T00:59:54;7.10;99.90
43581;DHT22;29175;51.030;4.606;2023-01-10T01:02:20;7.10;99.90
43581;DHT22;29175;51.030;4.606;2023-01-10T01:04:46;7.10;99.90
43581;DHT22;29175;51.030;4.606;2023-01-10T01:07:11;7.10;99.90
43581;DHT22;29175;51.030;4.606;2023-01-10T01:09:37;7.10;99.90
43581;DHT22;29175;51.030;4.606;2023-01-10T01:12:23;7.20;99.90
43581;DHT22;29175;51.030;4.606;2023-01-10T01:14:49;7.40;99.90
43581;DHT22;29175;51.030;4.606;2023-01-10T01:17:14;7.50;99.90
43581;DHT22;29175;51.030;4.606;2023-01-10T01:19:40;7.70;99.90
43581;DHT22;29175;51.030;4.606;2023-01-10T01:22:06;7.50;99.90
43581;DHT22;29175;51.030;4.606;2023-01-10T01:24:32;7.50;99.90
43581;DHT22;29175;51.030;4.606;2023-01-10T01:26:57;7.50;99.90
43581;DHT22;29175;51.030;4.606;2023-01-10T01:29:23;7.50;99.90
43581;DHT22;29175;51.030;4.606;2023-01-10T01:31:49;7.50;99.90
43581;DHT22;29175;51.030;4.606;2023-01-10T01:34:15;7.40;99.90
43581;DHT22;29175;51.030;4.606;2023-01-10T01:36:41;7.60;99.90
43581;DHT22;29175;51.030;4.606;2023-01-10T01:39:06;7.80;99.90
43581;DHT22;29175;51.030;4.606;2023-01-10T01:41:32;7.70;99.90
43581;DHT22;29175;51.030;4.606;2023-01-10T01:44:18;7.60;99.90
43581;DHT22;29175;51.030;4.606;2023-01-10T01:46:59;7.80;99.90
43581;DHT22;29175;51.030;4.606;2023-01-10T01:49:26;7.80;99.90
43581;DHT22;29175;51.030;4.606;2023-01-10T01:51:57;7.90;99.90
43581;DHT22;29175;51.030;4.606;2023-01-10T01:54:24;7.80;99.90
43581;DHT22;29175;51.030;4.606;2023-01-10T01:56:55;7.60;99.90
43581;DHT22;29175;51.030;4.606;2023-01-10T01:59:39;7.70;99.90
43581;DHT22;29175;51.030;4.606;2023-01-10T02:02:10;7.50;99.90
43581;DHT22;29175;51.030;4.606;2023-01-10T02:04:45;7.50;99.90
43581;DHT22;29175;51.030;4.606;2023-01-10T02:07:12;7.40;99.90
43581;DHT22;29175;51.030;4.606;2023-01-10T02:12:11;7.40;99.90
43581;DHT22;29175;51.030;4.606;2023-01-10T02:14:39;7.30;99.90
43581;DHT22;29175;51.030;4.606;2023-01-10T02:17:08;7.30;99.90
43581;DHT22;29175;51.030;4.606;2023-01-10T02:19:50;7.30;99.90
43581;DHT22;29175;51.030;4.606;2023-01-10T02:33:46;7.00;99.90
43581;DHT22;29175;51.030;4.606;2023-01-10T02:39:17;7.00;99.90
43581;DHT22;29175;51.030;4.606;2023-01-10T02:41:55;7.20;99.90
43581;DHT22;29175;51.030;4.606;2023-01-10T02:47:11;6.90;99.90
43581;DHT22;29175;51.030;4.606;2023-01-10T02:49:45;7.00;99.90
43581;DHT22;29175;51.030;4.606;2023-01-10T02:52:14;7.10;99.90
43581;DHT22;29175;51.030;4.606;2023-01-10T02:54:42;7.20;99.90
43581;DHT22;29175;51.030;4.606;2023-01-10T02:57:40;7.20;99.90
43581;DHT22;29175;51.030;4.606;2023-01-10T03:03:32;7.20;99.90
43581;DHT22;29175;51.030;4.606;2023-01-10T03:08:47;6.90;99.90
43581;DHT22;29175;51.030;4.606;2023-01-10T03:11:14;6.60;99.90
43581;DHT22;29175;51.030;4.606;2023-01-10T03:13:55;6.80;99.90
43581;DHT22;29175;51.030;4.606;2023-01-10T03:16:28;6.90;99.90
43581;DHT22;29175;51.030;4.606;2023-01-10T03:19:06;6.60;99.90
43581;DHT22;29175;51.030;4.606;2023-01-10T03:21:33;6.60;99.90
43581;DHT22;29175;51.030;4.606;2023-01-10T03:24:06;6.80;99.90
43581;DHT22;29175;51.030;4.606;2023-01-10T03:27:02;6.70;99.90
43581;DHT22;29175;51.030;4.606;2023-01-10T03:29:49;6.70;99.90
43581;DHT22;29175;51.030;4.606;2023-01-10T03:32:20;6.60;99.90
43581;DHT22;29175;51.030;4.606;2023-01-10T03:34:47;6.60;99.90
43581;DHT22;29175;51.030;4.606;2023-01-10T03:39:53;6.50;99.90
43581;DHT22;29175;51.030;4.606;2023-01-10T03:42:32;6.40;99.90
43581;DHT22;29175;51.030;4.606;2023-01-10T03:45:29;6.40;99.90
43581;DHT22;29175;51.030;4.606;2023-01-10T03:48:01;6.40;99.90
43581;DHT22;29175;51.030;4.606;2023-01-10T03:50:27;6.30;99.90
43581;DHT22;29175;51.030;4.606;2023-01-10T03:52:54;6.30;99.90
43581;DHT22;29175;51.030;4.606;2023-01-10T03:55:23;6.40;99.90
43581;DHT22;29175;51.030;4.606;2023-01-10T03:57:50;6.20;99.90
43581;DHT22;29175;51.030;4.606;2023-01-10T04:00:16;6.20;99.90
43581;DHT22;29175;51.030;4.606;2023-01-10T04:02:42;6.10;99.90
43581;DHT22;29175;51.030;4.606;2023-01-10T04:05:09;6.20;99.90
43581;DHT22;29175;51.030;4.606;2023-01-10T04:07:34;6.10;99.90
43581;DHT22;29175;51.030;4.606;2023-01-10T04:10:02;6.10;99.90
43581;DHT22;29175;51.030;4.606;2023-01-10T04:12:28;6.00;99.90
43581;DHT22;29175;51.030;4.606;2023-01-10T04:14:53;6.00;99.90
43581;DHT22;29175;51.030;4.606;2023-01-10T04:17:19;6.00;99.90
43581;DHT22;29175;51.030;4.606;2023-01-10T04:19:45;6.30;99.90
43581;DHT22;29175;51.030;4.606;2023-01-10T04:22:11;6.20;99.90
43581;DHT22;29175;51.030;4.606;2023-01-10T04:24:37;6.00;99.90
43581;DHT22;29175;51.030;4.606;2023-01-10T04:27:03;6.30;99.90
43581;DHT22;29175;51.030;4.606;2023-01-10T04:29:29;6.30;99.90
43581;DHT22;29175;51.030;4.606;2023-01-10T04:31:55;5.90;99.90
43581;DHT22;29175;51.030;4.606;2023-01-10T04:34:21;6.00;99.90
43581;DHT22;29175;51.030;4.606;2023-01-10T04:36:47;6.20;99.90
43581;DHT22;29175;51.030;4.606;2023-01-10T04:39:13;6.20;99.90
43581;DHT22;29175;51.030;4.606;2023-01-10T04:41:41;6.00;99.90
43581;DHT22;29175;51.030;4.606;2023-01-10T04:44:07;6.00;99.90
43581;DHT22;29175;51.030;4.606;2023-01-10T04:46:33;5.80;99.90
43581;DHT22;29175;51.030;4.606;2023-01-10T04:48:59;5.90;99.90
43581;DHT22;29175;51.030;4.606;2023-01-10T04:51:26;5.70;99.90
43581;DHT22;29175;51.030;4.606;2023-01-10T04:53:52;5.90;99.90
43581;DHT22;29175;51.030;4.606;2023-01-10T04:56:20;5.80;99.90
43581;DHT22;29175;51.030;4.606;2023-01-10T04:58:46;5.80;99.90
43581;DHT22;29175;51.030;4.606;2023-01-10T05:01:17;5.90;99.90
43581;DHT22;29175;51.030;4.606;2023-01-10T05:03:46;5.80;99.90
43581;DHT22;29175;51.030;4.606;2023-01-10T05:06:13;5.60;99.90
43581;DHT22;29175;51.030;4.606;2023-01-10T05:08:39;5.80;99.90
43581;DHT22;29175;51.030;4.606;2023-01-10T05:11:04;5.90;99.90
43581;DHT22;29175;51.030;4.606;2023-01-10T05:13:30;6.00;99.90
43581;DHT22;29175;51.030;4.606;2023-01-10T05:15:56;6.00;99.90
43581;DHT22;29175;51.030;4.606;2023-01-10T05:18:23;6.10;99.90
43581;DHT22;29175;51.030;4.606;2023-01-10T05:20:49;6.00;99.90
43581;DHT22;29175;51.030;4.606;2023-01-10T05:23:15;5.80;99.90
43581;DHT22;29175;51.030;4.606;2023-01-10T05:25:41;5.80;99.90
43581;DHT22;29175;51.030;4.606;2023-01-10T05:28:07;5.70;99.90
43581;DHT22;29175;51.030;4.606;2023-01-10T05:30:33;5.60;99.90
43581;DHT22;29175;51.030;4.606;2023-01-10T05:32:59;5.70;99.90
43581;DHT22;29175;51.030;4.606;2023-01-10T05:35:24;5.70;99.90
43581;DHT22;29175;51.030;4.606;2023-01-10T05:37:50;5.50;99.90
43581;DHT22;29175;51.030;4.606;2023-01-10T05:40:18;5.70;99.90
43581;DHT22;29175;51.030;4.606;2023-01-10T05:42:43;5.70;99.90
43581;DHT22;29175;51.030;4.606;2023-01-10T05:45:09;5.70;99.90
43581;DHT22;29175;51.030;4.606;2023-01-10T05:47:35;6.00;99.90
43581;DHT22;29175;51.030;4.606;2023-01-10T05:50:01;6.10;99.90
43581;DHT22;29175;51.030;4.606;2023-01-10T05:52:27;5.90;99.90
43581;DHT22;29175;51.030;4.606;2023-01-10T05:54:53;5.90;99.90
43581;DHT22;29175;51.030;4.606;2023-01-10T05:57:18;5.70;99.90
43581;DHT22;29175;51.030;4.606;2023-01-10T05:59:46;5.60;99.90
43581;DHT22;29175;51.030;4.606;2023-01-10T06:02:12;5.80;99.90
43581;DHT22;29175;51.030;4.606;2023-01-10T06:04:38;5.60;99.90
43581;DHT22;29175;51.030;4.606;2023-01-10T06:07:03;5.70;99.90
43581;DHT22;29175;51.030;4.606;2023-01-10T06:09:29;5.80;99.90
43581;DHT22;29175;51.030;4.606;2023-01-10T06:11:55;5.70;99.90
43581;DHT22;29175;51.030;4.606;2023-01-10T06:14:20;5.70;99.90
43581;DHT22;29175;51.030;4.606;2023-01-10T06:16:47;5.60;99.90
43581;DHT22;29175;51.030;4.606;2023-01-10T06:19:13;5.50;99.90
43581;DHT22;29175;51.030;4.606;2023-01-10T06:21:39;5.40;99.90
43581;DHT22;29175;51.030;4.606;2023-01-10T06:24:05;5.40;99.90
43581;DHT22;29175;51.030;4.606;2023-01-10T06:26:31;5.40;99.90
43581;DHT22;29175;51.030;4.606;2023-01-10T06:28:56;5.50;99.90
43581;DHT22;29175;51.030;4.606;2023-01-10T06:31:24;5.40;99.90
43581;DHT22;29175;51.030;4.606;2023-01-10T06:33:50;5.40;99.90
43581;DHT22;29175;51.030;4.606;2023-01-10T06:36:16;5.50;99.90
43581;DHT22;29175;51.030;4.606;2023-01-10T06:38:42;5.50;99.90
43581;DHT22;29175;51.030;4.606;2023-01-10T06:41:08;5.40;99.90
43581;DHT22;29175;51.030;4.606;2023-01-10T06:43:41;5.40;99.90
43581;DHT22;29175;51.030;4.606;2023-01-10T06:46:07;5.30;99.90
43581;DHT22;29175;51.030;4.606;2023-01-10T06:48:35;5.30;99.90
43581;DHT22;29175;51.030;4.606;2023-01-10T06:51:01;5.30;99.90
43581;DHT22;29175;51.030;4.606;2023-01-10T06:53:27;5.30;99.90
43581;DHT22;29175;51.030;4.606;2023-01-10T06:55:54;5.30;99.90
43581;DHT22;29175;51.030;4.606;2023-01-10T06:58:20;5.20;99.90
43581;DHT22;29175;51.030;4.606;2023-01-10T07:00:46;5.30;99.90
43581;DHT22;29175;51.030;4.606;2023-01-10T07:03:12;5.60;99.90
43581;DHT22;29175;51.030;4.606;2023-01-10T07:05:37;5.60;99.90
43581;DHT22;29175;51.030;4.606;2023-01-10T07:08:03;5.50;99.90
43581;DHT22;29175;51.030;4.606;2023-01-10T07:10:29;5.50;99.90
43581;DHT22;29175;51.030;4.606;2023-01-10T07:12:55;5.30;99.90
43581;DHT22;29175;51.030;4.606;2023-01-10T07:15:21;5.20;99.90
43581;DHT22;29175;51.030;4.606;2023-01-10T07:17:47;5.20;99.90
43581;DHT22;29175;51.030;4.606;2023-01-10T07:20:13;5.10;99.90
43581;DHT22;29175;51.030;4.606;2023-01-10T07:22:39;5.00;99.90
43581;DHT22;29175;51.030;4.606;2023-01-10T07:25:05;5.00;99.90
43581;DHT22;29175;51.030;4.606;2023-01-10T07:27:31;5.00;99.90
43581;DHT22;29175;51.030;4.606;2023-01-10T07:29:57;5.20;99.90
43581;DHT22;29175;51.030;4.606;2023-01-10T07:32:23;5.20;99.90
43581;DHT22;29175;51.030;4.606;2023-01-10T07:34:49;5.20;99.90
43581;DHT22;29175;51.030;4.606;2023-01-10T07:37:15;5.30;99.90
43581;DHT22;29175;51.030;4.606;2023-01-10T07:39:40;5.30;99.90
43581;DHT22;29175;51.030;4.606;2023-01-10T07:42:08;5.40;99.90
43581;DHT22;29175;51.030;4.606;2023-01-10T07:44:34;5.30;99.90
43581;DHT22;29175;51.030;4.606;2023-01-10T07:47:00;5.20;99.90
43581;DHT22;29175;51.030;4.606;2023-01-10T07:49:25;5.20;99.90
43581;DHT22;29175;51.030;4.606;2023-01-10T07:51:51;5.50;99.90
43581;DHT22;29175;51.030;4.606;2023-01-10T07:54:17;5.30;99.90
43581;DHT22;29175;51.030;4.606;2023-01-10T07:56:42;5.50;99.90
43581;DHT22;29175;51.030;4.606;2023-01-10T07:59:08;5.60;99.90
43581;DHT22;29175;51.030;4.606;2023-01-10T08:01:34;5.50;99.90
43581;DHT22;29175;51.030;4.606;2023-01-10T08:03:59;5.70;99.90
43581;DHT22;29175;51.030;4.606;2023-01-10T08:06:25;5.60;99.90
43581;DHT22;29175;51.030;4.606;2023-01-10T08:08:51;5.50;99.90
43581;DHT22;29175;51.030;4.606;2023-01-10T08:11:17;5.60;99.90
43581;DHT22;29175;51.030;4.606;2023-01-10T08:13:42;5.70;99.90
43581;DHT22;29175;51.030;4.606;2023-01-10T08:16:08;5.70;99.90
43581;DHT22;29175;51.030;4.606;2023-01-10T08:18:34;5.90;99.90
43581;DHT22;29175;51.030;4.606;2023-01-10T08:21:00;5.90;99.90
43581;DHT22;29175;51.030;4.606;2023-01-10T08:23:25;5.90;99.90
43581;DHT22;29175;51.030;4.606;2023-01-10T08:25:52;6.00;99.90
43581;DHT22;29175;51.030;4.606;2023-01-10T08:28:18;6.30;99.90
43581;DHT22;29175;51.030;4.606;2023-01-10T08:30:44;6.30;99.90
43581;DHT22;29175;51.030;4.606;2023-01-10T08:33:11;6.50;99.90
43581;DHT22;29175;51.030;4.606;2023-01-10T08:35:40;6.60;99.90
43581;DHT22;29175;51.030;4.606;2023-01-10T08:38:07;6.30;99.90
43581;DHT22;29175;51.030;4.606;2023-01-10T08:40:33;6.20;99.90
43581;DHT22;29175;51.030;4.606;2023-01-10T08:43:00;6.40;99.90
43581;DHT22;29175;51.030;4.606;2023-01-10T08:45:26;6.50;99.90
43581;DHT22;29175;51.030;4.606;2023-01-10T08:47:52;6.40;99.90
43581;DHT22;29175;51.030;4.606;2023-01-10T08:50:18;6.40;99.90
43581;DHT22;29175;51.030;4.606;2023-01-10T08:52:44;6.70;99.90
43581;DHT22;29175;51.030;4.606;2023-01-10T08:55:10;6.90;99.90
43581;DHT22;29175;51.030;4.606;2023-01-10T08:57:36;6.70;99.90
43581;DHT22;29175;51.030;4.606;2023-01-10T09:00:02;6.60;99.90
43581;DHT22;29175;51.030;4.606;2023-01-10T09:02:28;6.70;99.90
43581;DHT22;29175;51.030;4.606;2023-01-10T09:04:54;6.80;99.90
43581;DHT22;29175;51.030;4.606;2023-01-10T09:07:20;6.70;99.90
43581;DHT22;29175;51.030;4.606;2023-01-10T09:09:45;6.40;99.90
43581;DHT22;29175;51.030;4.606;2023-01-10T09:12:12;6.40;99.90
43581;DHT22;29175;51.030;4.606;2023-01-10T09:14:56;6.80;99.90
43581;DHT22;29175;51.030;4.606;2023-01-10T09:17:22;6.80;99.90
43581;DHT22;29175;51.030;4.606;2023-01-10T09:19:48;7.00;99.90
43581;DHT22;29175;51.030;4.606;2023-01-10T09:22:13;6.90;99.90
43581;DHT22;29175;51.030;4.606;2023-01-10T09:24:39;7.00;99.90
43581;DHT22;29175;51.030;4.606;2023-01-10T09:27:06;6.90;99.90
43581;DHT22;29175;51.030;4.606;2023-01-10T09:29:31;6.90;99.90
43581;DHT22;29175;51.030;4.606;2023-01-10T09:31:57;7.00;99.90
43581;DHT22;29175;51.030;4.606;2023-01-10T09:34:23;7.20;99.90
43581;DHT22;29175;51.030;4.606;2023-01-10T09:36:49;7.40;99.90
43581;DHT22;29175;51.030;4.606;2023-01-10T09:39:15;7.60;99.90
43581;DHT22;29175;51.030;4.606;2023-01-10T09:45:05;7.40;99.90
43581;DHT22;29175;51.030;4.606;2023-01-10T09:47:23;7.40;99.90
43581;DHT22;29175;51.030;4.606;2023-01-10T09:50:16;7.50;99.90
43581;DHT22;29175;51.030;4.606;2023-01-10T09:52:54;7.70;99.90
43581;DHT22;29175;51.030;4.606;2023-01-10T09:55:30;7.70;99.90
43581;DHT22;29175;51.030;4.606;2023-01-10T09:57:59;7.80;99.90
43581;DHT22;29175;51.030;4.606;2023-01-10T10:00:38;7.80;99.90
43581;DHT22;29175;51.030;4.606;2023-01-10T10:03:17;8.10;99.90
43581;DHT22;29175;51.030;4.606;2023-01-10T10:05:46;8.10;99.90
43581;DHT22;29175;51.030;4.606;2023-01-10T10:08:15;8.20;99.90
43581;DHT22;29175;51.030;4.606;2023-01-10T10:11:04;8.10;99.90
43581;DHT22;29175;51.030;4.606;2023-01-10T10:19:16;8.20;99.90
43581;DHT22;29175;51.030;4.606;2023-01-10T10:22:09;8.20;99.90
43581;DHT22;29175;51.030;4.606;2023-01-10T10:33:33;8.20;99.90
43581;DHT22;29175;51.030;4.606;2023-01-10T10:35:54;8.30;99.90
43581;DHT22;29175;51.030;4.606;2023-01-10T10:38:37;8.50;99.90
43581;DHT22;29175;51.030;4.606;2023-01-10T10:41:04;8.90;99.90
43581;DHT22;29175;51.030;4.606;2023-01-10T10:43:38;9.10;99.90
43581;DHT22;29175;51.030;4.606;2023-01-10T10:46:12;8.90;99.90
43581;DHT22;29175;51.030;4.606;2023-01-10T10:51:38;9.30;99.90
43581;DHT22;29175;51.030;4.606;2023-01-10T10:54:09;9.20;99.90
43581;DHT22;29175;51.030;4.606;2023-01-10T10:56:36;9.00;99.90
43581;DHT22;29175;51.030;4.606;2023-01-10T10:59:03;9.10;99.90
43581;DHT22;29175;51.030;4.606;2023-01-10T11:01:29;9.20;99.90
43581;DHT22;29175;51.030;4.606;2023-01-10T11:03:58;9.20;99.90
43581;DHT22;29175;51.030;4.606;2023-01-10T11:06:25;9.40;99.90
43581;DHT22;29175;51.030;4.606;2023-01-10T11:08:55;9.50;99.90
43581;DHT22;29175;51.030;4.606;2023-01-10T11:11:33;9.30;99.90
43581;DHT22;29175;51.030;4.606;2023-01-10T11:14:05;9.50;99.90
43581;DHT22;29175;51.030;4.606;2023-01-10T11:16:36;9.30;99.90
43581;DHT22;29175;51.030;4.606;2023-01-10T11:19:29;9.40;99.90
43581;DHT22;29175;51.030;4.606;2023-01-10T11:21:59;9.40;99.90
43581;DHT22;29175;51.030;4.606;2023-01-10T11:24:31;9.60;99.90
43581;DHT22;29175;51.030;4.606;2023-01-10T11:27:00;9.60;99.90
43581;DHT22;29175;51.030;4.606;2023-01-10T11:29:37;9.40;99.90
43581;DHT22;29175;51.030;4.606;2023-01-10T11:32:22;9.20;99.90
43581;DHT22;29175;51.030;4.606;2023-01-10T11:34:57;8.80;99.90
43581;DHT22;29175;51.030;4.606;2023-01-10T11:37:33;8.70;99.90
43581;DHT22;29175;51.030;4.606;2023-01-10T11:40:27;8.80;99.90
43581;DHT22;29175;51.030;4.606;2023-01-10T11:42:54;9.20;99.90
43581;DHT22;29175;51.030;4.606;2023-01-10T11:45:29;8.90;99.90
43581;DHT22;29175;51.030;4.606;2023-01-10T11:50:35;9.30;99.90
43581;DHT22;29175;51.030;4.606;2023-01-10T11:53:01;9.40;99.90
43581;DHT22;29175;51.030;4.606;2023-01-10T11:55:31;9.40;99.90
43581;DHT22;29175;51.030;4.606;2023-01-10T11:58:06;9.40;99.90
43581;DHT22;29175;51.030;4.606;2023-01-10T12:00:51;9.30;99.90
43581;DHT22;29175;51.030;4.606;2023-01-10T12:06:01;9.60;99.90
43581;DHT22;29175;51.030;4.606;2023-01-10T12:08:36;9.70;99.90
43581;DHT22;29175;51.030;4.606;2023-01-10T12:11:05;9.60;99.90
43581;DHT22;29175;51.030;4.606;2023-01-10T12:13:50;9.50;99.90
43581;DHT22;29175;51.030;4.606;2023-01-10T12:16:26;9.70;99.90
43581;DHT22;29175;51.030;4.606;2023-01-10T12:18:54;9.40;99.90
43581;DHT22;29175;51.030;4.606;2023-01-10T12:21:37;9.60;99.90
43581;DHT22;29175;51.030;4.606;2023-01-10T12:24:13;9.70;99.90
43581;DHT22;29175;51.030;4.606;2023-01-10T12:26:40;9.40;99.90
43581;DHT22;29175;51.030;4.606;2023-01-10T12:29:11;9.20;99.90
43581;DHT22;29175;51.030;4.606;2023-01-10T12:31:39;9.30;99.90
43581;DHT22;29175;51.030;4.606;2023-01-10T12:34:28;9.10;99.90
43581;DHT22;29175;51.030;4.606;2023-01-10T12:37:25;9.40;99.90
43581;DHT22;29175;51.030;4.606;2023-01-10T12:39:59;9.30;99.90
43581;DHT22;29175;51.030;4.606;2023-01-10T12:45:37;9.00;99.90
43581;DHT22;29175;51.030;4.606;2023-01-10T12:48:44;9.30;99.90
43581;DHT22;29175;51.030;4.606;2023-01-10T12:51:14;9.10;99.90
43581;DHT22;29175;51.030;4.606;2023-01-10T12:53:59;9.10;99.90
43581;DHT22;29175;51.030;4.606;2023-01-10T12:56:28;8.90;99.90
43581;DHT22;29175;51.030;4.606;2023-01-10T12:58:58;8.90;99.90
43581;DHT22;29175;51.030;4.606;2023-01-10T13:01:35;8.80;99.90
43581;DHT22;29175;51.030;4.606;2023-01-10T13:04:08;8.90;99.90
43581;DHT22;29175;51.030;4.606;2023-01-10T13:06:37;9.20;99.90
43581;DHT22;29175;51.030;4.606;2023-01-10T13:09:13;9.20;99.90
43581;DHT22;29175;51.030;4.606;2023-01-10T13:12:07;9.00;99.90
43581;DHT22;29175;51.030;4.606;2023-01-10T13:19:41;9.10;99.90
43581;DHT22;29175;51.030;4.606;2023-01-10T13:22:20;8.90;99.90
43581;DHT22;29175;51.030;4.606;2023-01-10T13:24:58;9.00;99.90
43581;DHT22;29175;51.030;4.606;2023-01-10T13:27:31;9.20;99.90
43581;DHT22;29175;51.030;4.606;2023-01-10T13:29:57;8.90;99.90
43581;DHT22;29175;51.030;4.606;2023-01-10T13:32:30;8.90;99.90
43581;DHT22;29175;51.030;4.606;2023-01-10T13:35:15;8.80;99.90
43581;DHT22;29175;51.030;4.606;2023-01-10T13:37:44;8.90;99.90
43581;DHT22;29175;51.030;4.606;2023-01-10T13:40:26;8.90;99.90
43581;DHT22;29175;51.030;4.606;2023-01-10T13:51:20;8.50;99.90
43581;DHT22;29175;51.030;4.606;2023-01-10T13:54:00;8.30;99.90
43581;DHT22;29175;51.030;4.606;2023-01-10T13:56:33;8.50;99.90
43581;DHT22;29175;51.030;4.606;2023-01-10T13:58:59;8.40;99.90
43581;DHT22;29175;51.030;4.606;2023-01-10T14:01:49;8.50;99.90
43581;DHT22;29175;51.030;4.606;2023-01-10T14:04:51;8.50;99.90
43581;DHT22;29175;51.030;4.606;2023-01-10T14:09:47;8.30;99.90
43581;DHT22;29175;51.030;4.606;2023-01-10T14:12:25;8.30;99.90
43581;DHT22;29175;51.030;4.606;2023-01-10T14:14:56;8.20;99.90
43581;DHT22;29175;51.030;4.606;2023-01-10T14:17:28;7.90;99.90
43581;DHT22;29175;51.030;4.606;2023-01-10T14:20:17;7.90;99.90
43581;DHT22;29175;51.030;4.606;2023-01-10T14:25:25;8.10;99.90
43581;DHT22;29175;51.030;4.606;2023-01-10T14:27:53;8.00;99.90
43581;DHT22;29175;51.030;4.606;2023-01-10T14:30:32;8.10;99.90
43581;DHT22;29175;51.030;4.606;2023-01-10T14:33:19;8.10;99.90
43581;DHT22;29175;51.030;4.606;2023-01-10T14:35:49;7.80;99.90
43581;DHT22;29175;51.030;4.606;2023-01-10T14:38:25;7.90;99.90
43581;DHT22;29175;51.030;4.606;2023-01-10T14:40:56;7.80;99.90
43581;DHT22;29175;51.030;4.606;2023-01-10T14:43:28;7.90;99.90
43581;DHT22;29175;51.030;4.606;2023-01-10T14:46:27;7.80;99.90
43581;DHT22;29175;51.030;4.606;2023-01-10T14:48:54;7.70;99.90
43581;DHT22;29175;51.030;4.606;2023-01-10T14:51:29;7.80;99.90
43581;DHT22;29175;51.030;4.606;2023-01-10T14:54:09;7.70;99.90
43581;DHT22;29175;51.030;4.606;2023-01-10T14:56:41;7.60;99.90
43581;DHT22;29175;51.030;4.606;2023-01-10T15:01:42;7.70;99.90
43581;DHT22;29175;51.030;4.606;2023-01-10T15:04:17;7.80;99.90
43581;DHT22;29175;51.030;4.606;2023-01-10T15:09:16;7.70;99.90
43581;DHT22;29175;51.030;4.606;2023-01-10T15:11:42;7.80;99.90
43581;DHT22;29175;51.030;4.606;2023-01-10T15:14:09;7.80;99.90
43581;DHT22;29175;51.030;4.606;2023-01-10T15:16:35;7.70;99.90
43581;DHT22;29175;51.030;4.606;2023-01-10T15:19:02;7.50;99.90
43581;DHT22;29175;51.030;4.606;2023-01-10T15:21:27;7.60;99.90
43581;DHT22;29175;51.030;4.606;2023-01-10T15:23:54;7.60;99.90
43581;DHT22;29175;51.030;4.606;2023-01-10T15:26:26;7.60;99.90
43581;DHT22;29175;51.030;4.606;2023-01-10T15:29:11;7.50;99.90
43581;DHT22;29175;51.030;4.606;2023-01-10T15:31:39;7.40;99.90
43581;DHT22;29175;51.030;4.606;2023-01-10T15:34:19;7.50;99.90
43581;DHT22;29175;51.030;4.606;2023-01-10T15:36:50;7.60;99.90
43581;DHT22;29175;51.030;4.606;2023-01-10T15:39:19;7.50;99.90
43581;DHT22;29175;51.030;4.606;2023-01-10T15:41:46;7.70;99.90
43581;DHT22;29175;51.030;4.606;2023-01-10T15:44:38;7.60;99.90
43581;DHT22;29175;51.030;4.606;2023-01-10T15:47:05;7.60;99.90
43581;DHT22;29175;51.030;4.606;2023-01-10T15:49:54;7.70;99.90
43581;DHT22;29175;51.030;4.606;2023-01-10T15:52:22;7.70;99.90
43581;DHT22;29175;51.030;4.606;2023-01-10T15:54:48;7.70;99.90
43581;DHT22;29175;51.030;4.606;2023-01-10T15:57:23;7.60;99.90
43581;DHT22;29175;51.030;4.606;2023-01-10T15:59:50;7.50;99.90
43581;DHT22;29175;51.030;4.606;2023-01-10T16:02:31;7.60;99.90
43581;DHT22;29175;51.030;4.606;2023-01-10T16:05:05;7.70;99.90
43581;DHT22;29175;51.030;4.606;2023-01-10T16:07:41;7.60;99.90
43581;DHT22;29175;51.030;4.606;2023-01-10T16:10:24;7.70;99.90
43581;DHT22;29175;51.030;4.606;2023-01-10T16:12:51;7.70;99.90
43581;DHT22;29175;51.030;4.606;2023-01-10T16:15:39;7.70;99.90
43581;DHT22;29175;51.030;4.606;2023-01-10T16:18:06;7.70;99.90
43581;DHT22;29175;51.030;4.606;2023-01-10T16:20:40;7.90;99.90
43581;DHT22;29175;51.030;4.606;2023-01-10T16:23:14;7.80;99.90
43581;DHT22;29175;51.030;4.606;2023-01-10T16:25:45;7.70;99.90
43581;DHT22;29175;51.030;4.606;2023-01-10T16:28:11;7.90;99.90
43581;DHT22;29175;51.030;4.606;2023-01-10T16:30:38;8.10;99.90
43581;DHT22;29175;51.030;4.606;2023-01-10T16:33:10;7.90;99.90
43581;DHT22;29175;51.030;4.606;2023-01-10T16:35:36;7.80;99.90
43581;DHT22;29175;51.030;4.606;2023-01-10T16:38:01;7.80;99.90
43581;DHT22;29175;51.030;4.606;2023-01-10T16:40:36;7.90;99.90
43581;DHT22;29175;51.030;4.606;2023-01-10T16:43:02;7.90;99.90
43581;DHT22;29175;51.030;4.606;2023-01-10T16:45:46;8.10;99.90
43581;DHT22;29175;51.030;4.606;2023-01-10T16:48:13;7.90;99.90
43581;DHT22;29175;51.030;4.606;2023-01-10T16:50:40;7.90;99.90
43581;DHT22;29175;51.030;4.606;2023-01-10T16:53:08;8.10;99.90
43581;DHT22;29175;51.030;4.606;2023-01-10T16:55:46;8.10;99.90
43581;DHT22;29175;51.030;4.606;2023-01-10T16:58:13;8.10;99.90
43581;DHT22;29175;51.030;4.606;2023-01-10T17:00:41;8.00;99.90
43581;DHT22;29175;51.030;4.606;2023-01-10T17:03:12;8.10;99.90
43581;DHT22;29175;51.030;4.606;2023-01-10T17:05:39;8.20;99.90
43581;DHT22;29175;51.030;4.606;2023-01-10T17:08:05;8.10;99.90
43581;DHT22;29175;51.030;4.606;2023-01-10T17:10:33;8.30;99.90
43581;DHT22;29175;51.030;4.606;2023-01-10T17:13:01;8.20;99.90
43581;DHT22;29175;51.030;4.606;2023-01-10T17:15:29;8.40;99.90
43581;DHT22;29175;51.030;4.606;2023-01-10T17:17:55;8.20;99.90
43581;DHT22;29175;51.030;4.606;2023-01-10T17:20:20;8.10;99.90
43581;DHT22;29175;51.030;4.606;2023-01-10T17:22:46;8.40;99.90
43581;DHT22;29175;51.030;4.606;2023-01-10T17:25:16;8.60;99.90